sensor_id;sensor_type;location;lat;lon;timestamp;pressure;altitude;pressure_sealevel;temperature;humidity
38939;BME280;24211;49.980;19.776;2023-09-19T00:01:53;98678.47;;;19.65;100.00
38939;BME280;24211;49.980;19.776;2023-09-19T00:04:20;98679.06;;;19.62;100.00
38939;BME280;24211;49.980;19.776;2023-09-19T00:06:50;98687.19;;;19.62;100.00
38939;BME280;24211;49.980;19.776;2023-09-19T00:09:17;98679.63;;;19.58;100.00
38939;BME280;24211;49.980;19.776;2023-09-19T00:11:45;98680.75;;;19.58;100.00
38939;BME280;24211;49.980;19.776;2023-09-19T00:14:14;98680.25;;;19.55;100.00
38939;BME280;24211;49.980;19.776;2023-09-19T00:16:41;98673.22;;;19.54;100.00
38939;BME280;24211;49.980;19.776;2023-09-19T00:19:08;98680.25;;;19.55;100.00
38939;BME280;24211;49.980;19.776;2023-09-19T00:21:36;98674.94;;;19.50;100.00
38939;BME280;24211;49.980;19.776;2023-09-19T00:24:05;98674.41;;;19.48;100.00
38939;BME280;24211;49.980;19.776;2023-09-19T00:26:33;98676.03;;;19.49;100.00
38939;BME280;24211;49.980;19.776;2023-09-19T00:29:01;98679.03;;;19.48;100.00
38939;BME280;24211;49.980;19.776;2023-09-19T00:31:35;98668.97;;;19.48;100.00
38939;BME280;24211;49.980;19.776;2023-09-19T00:34:04;98672.00;;;19.47;100.00
38939;BME280;24211;49.980;19.776;2023-09-19T00:36:33;98662.56;;;19.44;100.00
38939;BME280;24211;49.980;19.776;2023-09-19T00:39:00;98671.00;;;19.43;100.00
38939;BME280;24211;49.980;19.776;2023-09-19T00:41:28;98663.44;;;19.40;100.00
38939;BME280;24211;49.980;19.776;2023-09-19T00:43:57;98662.13;;;19.37;100.00
38939;BME280;24211;49.980;19.776;2023-09-19T00:46:28;98660.38;;;19.28;100.00
38939;BME280;24211;49.980;19.776;2023-09-19T00:48:56;98651.44;;;19.27;100.00
38939;BME280;24211;49.980;19.776;2023-09-19T00:51:25;98652.44;;;19.31;100.00
38939;BME280;24211;49.980;19.776;2023-09-19T00:53:53;98660.06;;;19.29;100.00
38939;BME280;24211;49.980;19.776;2023-09-19T00:56:21;98651.66;;;19.31;100.00
38939;BME280;24211;49.980;19.776;2023-09-19T00:58:48;98654.66;;;19.29;100.00
38939;BME280;24211;49.980;19.776;2023-09-19T01:01:16;98647.13;;;19.26;100.00
38939;BME280;24211;49.980;19.776;2023-09-19T01:03:44;98644.41;;;19.26;100.00
38939;BME280;24211;49.980;19.776;2023-09-19T01:06:13;98638.97;;;19.26;100.00
38939;BME280;24211;49.980;19.776;2023-09-19T01:08:40;98637.41;;;19.25;100.00
38939;BME280;24211;49.980;19.776;2023-09-19T01:11:16;98639.59;;;19.23;100.00
38939;BME280;24211;49.980;19.776;2023-09-19T01:17:19;98625.56;;;19.21;100.00
38939;BME280;24211;49.980;19.776;2023-09-19T01:20:44;98634.78;;;19.20;100.00
38939;BME280;24211;49.980;19.776;2023-09-19T01:29:26;98627.22;;;19.17;100.00
38939;BME280;24211;49.980;19.776;2023-09-19T01:32:06;98617.50;;;19.16;100.00
38939;BME280;24211;49.980;19.776;2023-09-19T01:34:57;98626.22;;;19.13;100.00
38939;BME280;24211;49.980;19.776;2023-09-19T01:37:31;98624.09;;;19.10;100.00
38939;BME280;24211;49.980;19.776;2023-09-19T01:40:02;98620.31;;;19.11;100.00
38939;BME280;24211;49.980;19.776;2023-09-19T01:43:09;98617.06;;;19.09;100.00
38939;BME280;24211;49.980;19.776;2023-09-19T01:45:52;98620.91;;;19.08;100.00
38939;BME280;24211;49.980;19.776;2023-09-19T01:48:57;98610.34;;;19.07;100.00
38939;BME280;24211;49.980;19.776;2023-09-19T01:51:51;98613.34;;;19.05;100.00
38939;BME280;24211;49.980;19.776;2023-09-19T01:54:32;98602.84;;;19.04;100.00
38939;BME280;24211;49.980;19.776;2023-09-19T01:57:14;98605.81;;;19.02;100.00
38939;BME280;24211;49.980;19.776;2023-09-19T01:59:52;98615.66;;;18.98;100.00
38939;BME280;24211;49.980;19.776;2023-09-19T02:02:22;98624.56;;;18.99;100.00
38939;BME280;24211;49.980;19.776;2023-09-19T02:04:50;98621.56;;;19.00;100.00
38939;BME280;24211;49.980;19.776;2023-09-19T02:07:18;98624.28;;;19.00;100.00
38939;BME280;24211;49.980;19.776;2023-09-19T02:09:45;98623.47;;;19.00;100.00
38939;BME280;24211;49.980;19.776;2023-09-19T02:12:14;98626.47;;;18.98;100.00
38939;BME280;24211;49.980;19.776;2023-09-19T02:14:42;98619.44;;;18.97;100.00
38939;BME280;24211;49.980;19.776;2023-09-19T02:17:09;98616.22;;;18.95;100.00
38939;BME280;24211;49.980;19.776;2023-09-19T02:19:40;98623.53;;;18.94;100.00
38939;BME280;24211;49.980;19.776;2023-09-19T02:22:08;98623.53;;;18.94;100.00
38939;BME280;24211;49.980;19.776;2023-09-19T02:24:37;98620.06;;;18.94;100.00
38939;BME280;24211;49.980;19.776;2023-09-19T02:27:05;98615.72;;;18.93;100.00
38939;BME280;24211;49.980;19.776;2023-09-19T02:29:32;98606.59;;;18.89;100.00
38939;BME280;24211;49.980;19.776;2023-09-19T02:32:03;98586.59;;;18.85;100.00
38939;BME280;24211;49.980;19.776;2023-09-19T02:34:31;98591.53;;;18.83;100.00
38939;BME280;24211;49.980;19.776;2023-09-19T02:36:59;98588.22;;;18.86;100.00
38939;BME280;24211;49.980;19.776;2023-09-19T02:39:27;98598.56;;;18.84;100.00
38939;BME280;24211;49.980;19.776;2023-09-19T02:41:55;98585.53;;;18.86;100.00
38939;BME280;24211;49.980;19.776;2023-09-19T02:44:22;98589.31;;;18.85;100.00
38939;BME280;24211;49.980;19.776;2023-09-19T02:46:51;98575.78;;;18.85;100.00
38939;BME280;24211;49.980;19.776;2023-09-19T02:49:18;98571.47;;;18.84;100.00
38939;BME280;24211;49.980;19.776;2023-09-19T02:51:46;98564.44;;;18.83;100.00
38939;BME280;24211;49.980;19.776;2023-09-19T02:54:14;98564.44;;;18.83;100.00
38939;BME280;24211;49.980;19.776;2023-09-19T02:56:43;98564.44;;;18.83;100.00
38939;BME280;24211;49.980;19.776;2023-09-19T02:59:10;98566.88;;;18.84;100.00
38939;BME280;24211;49.980;19.776;2023-09-19T03:01:38;98569.34;;;18.81;100.00
38939;BME280;24211;49.980;19.776;2023-09-19T03:04:05;98555.81;;;18.81;100.00
38939;BME280;24211;49.980;19.776;2023-09-19T03:06:38;98558.84;;;18.79;100.00
38939;BME280;24211;49.980;19.776;2023-09-19T03:09:06;98545.59;;;18.78;100.00
38939;BME280;24211;49.980;19.776;2023-09-19T03:11:39;98556.13;;;18.79;100.00
38939;BME280;24211;49.980;19.776;2023-09-19T03:14:07;98545.59;;;18.78;100.00
38939;BME280;24211;49.980;19.776;2023-09-19T03:16:34;98541.28;;;18.77;100.00
38939;BME280;24211;49.980;19.776;2023-09-19T03:19:04;98533.16;;;18.77;100.00
38939;BME280;24211;49.980;19.776;2023-09-19T03:21:32;98543.69;;;18.78;100.00
38939;BME280;24211;49.980;19.776;2023-09-19T03:23:59;98534.75;;;18.78;100.00
38939;BME280;24211;49.980;19.776;2023-09-19T03:26:27;98532.34;;;18.76;100.00
38939;BME280;24211;49.980;19.776;2023-09-19T03:28:54;98524.50;;;18.75;100.00
38939;BME280;24211;49.980;19.776;2023-09-19T03:31:22;98518.00;;;18.76;100.00
38939;BME280;24211;49.980;19.776;2023-09-19T03:33:49;98518.00;;;18.76;100.00
38939;BME280;24211;49.980;19.776;2023-09-19T03:36:16;98513.69;;;18.75;100.00
38939;BME280;24211;49.980;19.776;2023-09-19T03:38:43;98520.22;;;18.74;100.00
38939;BME280;24211;49.980;19.776;2023-09-19T03:41:11;98515.88;;;18.73;100.00
38939;BME280;24211;49.980;19.776;2023-09-19T03:43:41;98517.50;;;18.74;100.00
38939;BME280;24211;49.980;19.776;2023-09-19T03:46:09;98519.09;;;18.75;100.00
38939;BME280;24211;49.980;19.776;2023-09-19T03:48:38;98522.91;;;18.74;100.00
38939;BME280;24211;49.980;19.776;2023-09-19T03:51:05;98525.63;;;18.74;100.00
38939;BME280;24211;49.980;19.776;2023-09-19T03:53:33;98529.44;;;18.73;100.00
38939;BME280;24211;49.980;19.776;2023-09-19T03:56:00;98515.09;;;18.72;100.00
38939;BME280;24211;49.980;19.776;2023-09-19T03:58:31;98515.88;;;18.73;100.00
38939;BME280;24211;49.980;19.776;2023-09-19T04:00:58;98515.09;;;18.72;100.00
38939;BME280;24211;49.980;19.776;2023-09-19T04:03:27;98517.00;;;18.72;100.00
38939;BME280;24211;49.980;19.776;2023-09-19T04:06:03;98518.91;;;18.71;100.00
38939;BME280;24211;49.980;19.776;2023-09-19T04:08:30;98511.88;;;18.70;100.00
38939;BME280;24211;49.980;19.776;2023-09-19T04:10:57;98512.69;;;18.71;100.00
38939;BME280;24211;49.980;19.776;2023-09-19T04:13:25;98512.69;;;18.71;100.00
38939;BME280;24211;49.980;19.776;2023-09-19T04:15:53;98511.06;;;18.70;100.00
38939;BME280;24211;49.980;19.776;2023-09-19T04:18:20;98511.06;;;18.70;100.00
38939;BME280;24211;49.980;19.776;2023-09-19T04:20:49;98512.69;;;18.71;100.00
38939;BME280;24211;49.980;19.776;2023-09-19T04:23:17;98513.78;;;18.70;100.00
38939;BME280;24211;49.980;19.776;2023-09-19T04:25:47;98518.09;;;18.71;100.00
38939;BME280;24211;49.980;19.776;2023-09-19T04:28:15;98508.34;;;18.70;100.00
38939;BME280;24211;49.980;19.776;2023-09-19T04:30:43;98505.97;;;18.68;100.00
38939;BME280;24211;49.980;19.776;2023-09-19T04:33:10;98509.47;;;18.69;100.00
38939;BME280;24211;49.980;19.776;2023-09-19T04:35:38;98504.06;;;18.69;100.00
38939;BME280;24211;49.980;19.776;2023-09-19T04:38:06;98511.38;;;18.68;100.00
38939;BME280;24211;49.980;19.776;2023-09-19T04:40:34;98514.88;;;18.69;100.00
38939;BME280;24211;49.980;19.776;2023-09-19T04:43:02;98509.47;;;18.69;100.00
38939;BME280;24211;49.980;19.776;2023-09-19T04:45:30;98510.88;;;18.66;100.00
38939;BME280;24211;49.980;19.776;2023-09-19T04:47:57;98502.44;;;18.68;100.00
38939;BME280;24211;49.980;19.776;2023-09-19T04:50:24;98514.38;;;18.67;100.00
38939;BME280;24211;49.980;19.776;2023-09-19T04:52:53;98516.59;;;18.65;100.00
38939;BME280;24211;49.980;19.776;2023-09-19T04:55:21;98520.06;;;18.65;100.00
38939;BME280;24211;49.980;19.776;2023-09-19T04:57:50;98528.50;;;18.64;100.00
38939;BME280;24211;49.980;19.776;2023-09-19T05:00:19;98533.91;;;18.64;100.00
38939;BME280;24211;49.980;19.776;2023-09-19T05:02:52;98543.13;;;18.63;100.00
38939;BME280;24211;49.980;19.776;2023-09-19T05:05:21;98536.63;;;18.64;100.00
38939;BME280;24211;49.980;19.776;2023-09-19T05:07:50;98537.13;;;18.66;100.00
38939;BME280;24211;49.980;19.776;2023-09-19T05:10:18;98537.13;;;18.66;100.00
38939;BME280;24211;49.980;19.776;2023-09-19T05:12:46;98542.53;;;18.66;100.00
38939;BME280;24211;49.980;19.776;2023-09-19T05:15:15;98549.56;;;18.67;100.00
38939;BME280;24211;49.980;19.776;2023-09-19T05:17:51;98551.16;;;18.68;100.00
38939;BME280;24211;49.980;19.776;2023-09-19T05:20:25;98558.19;;;18.69;100.00
38939;BME280;24211;49.980;19.776;2023-09-19T05:23:05;98560.41;;;18.67;100.00
38939;BME280;24211;49.980;19.776;2023-09-19T05:25:37;98572.81;;;18.68;100.00
38939;BME280;24211;49.980;19.776;2023-09-19T05:28:09;98574.44;;;18.69;100.00
38939;BME280;24211;49.980;19.776;2023-09-19T05:30:39;98572.53;;;18.69;100.00
38939;BME280;24211;49.980;19.776;2023-09-19T05:33:07;98569.84;;;18.69;100.00
38939;BME280;24211;49.980;19.776;2023-09-19T05:35:36;98562.22;;;18.71;100.00
38939;BME280;24211;49.980;19.776;2023-09-19T05:38:08;98564.09;;;18.71;100.00
38939;BME280;24211;49.980;19.776;2023-09-19T05:40:36;98565.19;;;18.70;100.00
38939;BME280;24211;49.980;19.776;2023-09-19T05:43:05;98566.81;;;18.71;100.00
38939;BME280;24211;49.980;19.776;2023-09-19T05:45:33;98565.19;;;18.70;100.00
38939;BME280;24211;49.980;19.776;2023-09-19T05:48:11;98572.22;;;18.71;100.00
38939;BME280;24211;49.980;19.776;2023-09-19T05:50:41;98573.84;;;18.72;100.00
38939;BME280;24211;49.980;19.776;2023-09-19T05:53:09;98577.13;;;18.69;100.00
38939;BME280;24211;49.980;19.776;2023-09-19T05:55:39;98578.72;;;18.70;100.00
38939;BME280;24211;49.980;19.776;2023-09-19T05:58:07;98586.34;;;18.68;100.00
38939;BME280;24211;49.980;19.776;2023-09-19T06:00:34;98585.25;;;18.69;100.00
38939;BME280;24211;49.980;19.776;2023-09-19T06:03:05;98592.88;;;18.67;100.00
38939;BME280;24211;49.980;19.776;2023-09-19T06:05:33;98592.88;;;18.67;100.00
38939;BME280;24211;49.980;19.776;2023-09-19T06:08:00;98592.06;;;18.66;100.00
38939;BME280;24211;49.980;19.776;2023-09-19T06:10:28;98591.25;;;18.66;100.00
38939;BME280;24211;49.980;19.776;2023-09-19T06:12:56;98584.75;;;18.67;100.00
38939;BME280;24211;49.980;19.776;2023-09-19T06:15:25;98580.44;;;18.66;100.00
38939;BME280;24211;49.980;19.776;2023-09-19T06:17:55;98580.44;;;18.66;100.00
38939;BME280;24211;49.980;19.776;2023-09-19T06:20:24;98585.03;;;18.65;100.00
38939;BME280;24211;49.980;19.776;2023-09-19T06:22:53;98585.84;;;18.66;100.00
38939;BME280;24211;49.980;19.776;2023-09-19T06:25:21;98584.75;;;18.67;100.00
38939;BME280;24211;49.980;19.776;2023-09-19T06:27:53;98583.94;;;18.66;100.00
38939;BME280;24211;49.980;19.776;2023-09-19T06:30:24;98585.84;;;18.66;100.00
38939;BME280;24211;49.980;19.776;2023-09-19T06:32:57;98592.38;;;18.65;100.00
38939;BME280;24211;49.980;19.776;2023-09-19T06:35:26;98588.84;;;18.64;100.00
38939;BME280;24211;49.980;19.776;2023-09-19T06:37:53;98596.66;;;18.66;100.00
38939;BME280;24211;49.980;19.776;2023-09-19T06:40:21;98596.97;;;18.64;100.00
38939;BME280;24211;49.980;19.776;2023-09-19T06:42:51;98598.88;;;18.64;100.00
38939;BME280;24211;49.980;19.776;2023-09-19T06:45:21;98603.19;;;18.65;100.00
38939;BME280;24211;49.980;19.776;2023-09-19T06:47:52;98601.56;;;18.64;100.00
38939;BME280;24211;49.980;19.776;2023-09-19T06:50:21;98604.78;;;18.66;100.00
38939;BME280;24211;49.980;19.776;2023-09-19T06:52:54;98612.41;;;18.64;100.00
38939;BME280;24211;49.980;19.776;2023-09-19T06:55:22;98608.06;;;18.63;100.00
38939;BME280;24211;49.980;19.776;2023-09-19T06:57:55;98615.69;;;18.61;100.00
38939;BME280;24211;49.980;19.776;2023-09-19T07:00:23;98612.72;;;18.62;100.00
38939;BME280;24211;49.980;19.776;2023-09-19T07:03:01;98615.69;;;18.61;100.00
38939;BME280;24211;49.980;19.776;2023-09-19T07:05:40;98620.81;;;18.62;100.00
38939;BME280;24211;49.980;19.776;2023-09-19T07:08:34;98632.72;;;18.61;100.00
38939;BME280;24211;49.980;19.776;2023-09-19T07:11:07;98629.72;;;18.63;100.00
38939;BME280;24211;49.980;19.776;2023-09-19T07:14:08;98624.31;;;18.63;100.00
38939;BME280;24211;49.980;19.776;2023-09-19T07:16:39;98628.94;;;18.62;100.00
38939;BME280;24211;49.980;19.776;2023-09-19T07:19:09;98631.34;;;18.64;100.00
38939;BME280;24211;49.980;19.776;2023-09-19T07:21:57;98637.84;;;18.63;100.00
38939;BME280;24211;49.980;19.776;2023-09-19T07:24:27;98640.53;;;18.63;100.00
38939;BME280;24211;49.980;19.776;2023-09-19T07:27:51;98642.16;;;18.64;100.00
38939;BME280;24211;49.980;19.776;2023-09-19T07:30:18;98641.34;;;18.63;100.00
38939;BME280;24211;49.980;19.776;2023-09-19T07:32:45;98653.81;;;18.64;100.00
38939;BME280;24211;49.980;19.776;2023-09-19T07:35:13;98654.63;;;18.65;100.00
38939;BME280;24211;49.980;19.776;2023-09-19T07:37:40;98655.69;;;18.64;100.00
38939;BME280;24211;49.980;19.776;2023-09-19T07:40:08;98651.69;;;18.61;100.00
38939;BME280;24211;49.980;19.776;2023-09-19T07:42:37;98650.38;;;18.59;100.00
38939;BME280;24211;49.980;19.776;2023-09-19T07:45:07;98670.44;;;18.53;100.00
38939;BME280;24211;49.980;19.776;2023-09-19T07:47:35;98674.03;;;18.48;100.00
38939;BME280;24211;49.980;19.776;2023-09-19T07:50:03;98671.63;;;18.47;100.00
38939;BME280;24211;49.980;19.776;2023-09-19T07:52:31;98690.91;;;18.40;100.00
38939;BME280;24211;49.980;19.776;2023-09-19T07:55:00;98702.31;;;18.37;100.00
38939;BME280;24211;49.980;19.776;2023-09-19T07:57:33;98713.41;;;18.36;100.00
38939;BME280;24211;49.980;19.776;2023-09-19T08:00:01;98708.53;;;18.38;100.00
38939;BME280;24211;49.980;19.776;2023-09-19T08:02:38;98709.69;;;18.32;100.00
38939;BME280;24211;49.980;19.776;2023-09-19T08:05:07;98718.66;;;18.27;100.00
38939;BME280;24211;49.980;19.776;2023-09-19T08:07:40;98722.81;;;18.19;100.00
38939;BME280;24211;49.980;19.776;2023-09-19T08:10:08;98726.59;;;18.18;100.00
38939;BME280;24211;49.980;19.776;2023-09-19T08:12:40;98730.41;;;18.17;100.00
38939;BME280;24211;49.980;19.776;2023-09-19T08:15:16;98745.56;;;18.13;100.00
38939;BME280;24211;49.980;19.776;2023-09-19T08:17:44;98751.59;;;18.10;100.00
38939;BME280;24211;49.980;19.776;2023-09-19T08:20:12;98759.97;;;18.09;100.00
38939;BME280;24211;49.980;19.776;2023-09-19T08:22:50;98763.00;;;18.02;100.00
38939;BME280;24211;49.980;19.776;2023-09-19T08:25:23;98776.28;;;17.99;100.00
38939;BME280;24211;49.980;19.776;2023-09-19T08:27:54;98771.13;;;18.02;100.00
38939;BME280;24211;49.980;19.776;2023-09-19T08:30:25;98775.97;;;18.05;100.00
38939;BME280;24211;49.980;19.776;2023-09-19T08:33:01;98774.34;;;18.04;100.00
38939;BME280;24211;49.980;19.776;2023-09-19T08:35:28;98770.56;;;18.05;100.00
38939;BME280;24211;49.980;19.776;2023-09-19T08:37:56;98780.56;;;18.05;100.00
38939;BME280;24211;49.980;19.776;2023-09-19T08:40:24;98793.78;;;18.06;100.00
38939;BME280;24211;49.980;19.776;2023-09-19T08:42:56;98795.41;;;18.07;100.00
38939;BME280;24211;49.980;19.776;2023-09-19T08:45:24;98791.59;;;18.08;100.00
38939;BME280;24211;49.980;19.776;2023-09-19T08:50:30;98809.03;;;17.97;100.00
38939;BME280;24211;49.980;19.776;2023-09-19T08:53:11;98806.88;;;17.94;100.00
38939;BME280;24211;49.980;19.776;2023-09-19T08:55:43;98811.16;;;18.00;100.00
38939;BME280;24211;49.980;19.776;2023-09-19T08:58:19;98816.56;;;18.00;100.00
38939;BME280;24211;49.980;19.776;2023-09-19T09:00:53;98814.94;;;17.99;100.00
38939;BME280;24211;49.980;19.776;2023-09-19T09:03:22;98821.41;;;18.03;100.00
38939;BME280;24211;49.980;19.776;2023-09-19T09:05:50;98824.66;;;18.05;100.00
38939;BME280;24211;49.980;19.776;2023-09-19T09:08:20;98826.22;;;18.06;100.00
38939;BME280;24211;49.980;19.776;2023-09-19T09:10:49;98835.72;;;18.04;100.00
38939;BME280;24211;49.980;19.776;2023-09-19T09:13:18;98840.28;;;18.08;100.00
38939;BME280;24211;49.980;19.776;2023-09-19T09:15:45;98843.78;;;18.09;100.00
38939;BME280;24211;49.980;19.776;2023-09-19T09:18:12;98842.94;;;18.13;100.00
38939;BME280;24211;49.980;19.776;2023-09-19T09:20:40;98844.00;;;18.17;100.00
38939;BME280;24211;49.980;19.776;2023-09-19T09:23:08;98844.81;;;18.18;100.00
38939;BME280;24211;49.980;19.776;2023-09-19T09:25:55;98849.41;;;18.17;100.00
38939;BME280;24211;49.980;19.776;2023-09-19T09:28:46;98845.03;;;18.21;100.00
38939;BME280;24211;49.980;19.776;2023-09-19T09:31:25;98846.66;;;18.22;100.00
38939;BME280;24211;49.980;19.776;2023-09-19T09:33:56;98853.66;;;18.23;100.00
38939;BME280;24211;49.980;19.776;2023-09-19T09:36:39;98852.88;;;18.23;100.00
38939;BME280;24211;49.980;19.776;2023-09-19T09:39:15;98855.28;;;18.24;100.00
38939;BME280;24211;49.980;19.776;2023-09-19T09:41:56;98862.03;;;18.27;100.00
38939;BME280;24211;49.980;19.776;2023-09-19T09:44:27;98858.50;;;18.26;100.00
38939;BME280;24211;49.980;19.776;2023-09-19T09:47:10;98866.09;;;18.24;100.00
38939;BME280;24211;49.980;19.776;2023-09-19T09:49:56;98863.34;;;18.29;100.00
38939;BME280;24211;49.980;19.776;2023-09-19T09:52:45;98876.00;;;18.34;100.00
38939;BME280;24211;49.980;19.776;2023-09-19T09:55:13;98867.03;;;18.39;100.00
38939;BME280;24211;49.980;19.776;2023-09-19T09:57:40;98866.47;;;18.42;100.00
38939;BME280;24211;49.980;19.776;2023-09-19T10:00:10;98872.91;;;18.46;100.00
38939;BME280;24211;49.980;19.776;2023-09-19T10:02:40;98872.06;;;18.50;100.00
38939;BME280;24211;49.980;19.776;2023-09-19T10:05:15;98882.63;;;18.52;100.00
38939;BME280;24211;49.980;19.776;2023-09-19T10:07:55;98877.75;;;18.54;100.00
38939;BME280;24211;49.980;19.776;2023-09-19T10:13:12;98889.06;;;18.56;100.00
38939;BME280;24211;49.980;19.776;2023-09-19T10:15:44;98888.25;;;18.55;100.00
38939;BME280;24211;49.980;19.776;2023-09-19T10:18:25;98889.06;;;18.56;100.00
38939;BME280;24211;49.980;19.776;2023-09-19T10:20:56;98894.22;;;18.57;100.00
38939;BME280;24211;49.980;19.776;2023-09-19T10:23:26;98898.25;;;18.60;100.00
38939;BME280;24211;49.980;19.776;2023-09-19T10:25:58;98894.94;;;18.63;100.00
38939;BME280;24211;49.980;19.776;2023-09-19T10:28:30;98898.22;;;18.65;100.00
38939;BME280;24211;49.980;19.776;2023-09-19T10:30:59;98900.38;;;18.63;100.00
38939;BME280;24211;49.980;19.776;2023-09-19T10:33:36;98898.22;;;18.65;100.00
38939;BME280;24211;49.980;19.776;2023-09-19T10:36:05;98902.00;;;18.64;100.00
38939;BME280;24211;49.980;19.776;2023-09-19T10:38:34;98902.81;;;18.64;100.00
38939;BME280;24211;49.980;19.776;2023-09-19T10:41:04;98910.97;;;18.59;100.00
38939;BME280;24211;49.980;19.776;2023-09-19T10:43:33;98916.13;;;18.56;100.00
38939;BME280;24211;49.980;19.776;2023-09-19T10:46:07;98917.25;;;18.55;100.00
38939;BME280;24211;49.980;19.776;2023-09-19T10:48:39;98917.25;;;18.55;100.00
38939;BME280;24211;49.980;19.776;2023-09-19T10:51:12;98917.78;;;18.57;100.00
38939;BME280;24211;49.980;19.776;2023-09-19T10:53:49;98918.78;;;18.61;100.00
38939;BME280;24211;49.980;19.776;2023-09-19T10:56:26;98923.66;;;18.64;100.00
38939;BME280;24211;49.980;19.776;2023-09-19T10:59:10;98921.97;;;18.68;100.00
38939;BME280;24211;49.980;19.776;2023-09-19T11:01:43;98923.59;;;18.69;100.00
38939;BME280;24211;49.980;19.776;2023-09-19T11:04:33;98922.47;;;18.70;100.00
38939;BME280;24211;49.980;19.776;2023-09-19T11:07:13;98925.72;;;18.72;100.00
38939;BME280;24211;49.980;19.776;2023-09-19T11:09:55;98927.34;;;18.73;100.00
38939;BME280;24211;49.980;19.776;2023-09-19T11:16:03;98935.97;;;18.75;100.00
38939;BME280;24211;49.980;19.776;2023-09-19T11:40:06;98952.81;;;18.72;100.00
38939;BME280;24211;49.980;19.776;2023-09-19T11:42:45;98945.75;;;18.71;100.00
38939;BME280;24211;49.980;19.776;2023-09-19T11:48:08;98960.38;;;18.70;100.00
38939;BME280;24211;49.980;19.776;2023-09-19T11:50:42;98956.34;;;18.67;100.00
38939;BME280;24211;49.980;19.776;2023-09-19T11:53:14;98953.38;;;18.69;100.00
38939;BME280;24211;49.980;19.776;2023-09-19T11:55:43;98955.78;;;18.70;100.00
38939;BME280;24211;49.980;19.776;2023-09-19T11:58:15;98955.50;;;18.72;100.00
38939;BME280;24211;49.980;19.776;2023-09-19T12:00:44;98943.56;;;18.73;100.00
38939;BME280;24211;49.980;19.776;2023-09-19T12:03:14;98956.03;;;18.74;100.00
38939;BME280;24211;49.980;19.776;2023-09-19T12:05:42;98948.41;;;18.76;100.00
38939;BME280;24211;49.980;19.776;2023-09-19T12:08:10;98955.47;;;18.77;100.00
38939;BME280;24211;49.980;19.776;2023-09-19T12:10:48;98958.69;;;18.79;100.00
38939;BME280;24211;49.980;19.776;2023-09-19T12:13:18;98957.56;;;18.80;100.00
38939;BME280;24211;49.980;19.776;2023-09-19T12:15:46;98959.72;;;18.83;100.00
38939;BME280;24211;49.980;19.776;2023-09-19T12:18:31;98955.94;;;18.84;100.00
38939;BME280;24211;49.980;19.776;2023-09-19T12:20:58;98959.16;;;18.86;100.00
38939;BME280;24211;49.980;19.776;2023-09-19T12:23:26;98960.75;;;18.87;100.00
38939;BME280;24211;49.980;19.776;2023-09-19T12:25:54;98967.22;;;18.91;100.00
38939;BME280;24211;49.980;19.776;2023-09-19T12:28:27;98961.25;;;18.94;100.00
38939;BME280;24211;49.980;19.776;2023-09-19T12:31:07;98965.53;;;18.95;100.00
38939;BME280;24211;49.980;19.776;2023-09-19T12:33:35;98967.69;;;18.98;100.00
38939;BME280;24211;49.980;19.776;2023-09-19T12:36:23;98963.88;;;18.99;100.00
38939;BME280;24211;49.980;19.776;2023-09-19T12:38:57;98973.91;;;18.99;100.00
38939;BME280;24211;49.980;19.776;2023-09-19T12:41:27;98973.34;;;19.02;100.00
38939;BME280;24211;49.980;19.776;2023-09-19T12:43:55;98969.25;;;19.04;100.00
38939;BME280;24211;49.980;19.776;2023-09-19T12:46:22;98969.78;;;19.06;100.00
38939;BME280;24211;49.980;19.776;2023-09-19T12:49:19;98973.81;;;19.09;100.00
38939;BME280;24211;49.980;19.776;2023-09-19T12:51:47;98964.81;;;19.13;100.00
38939;BME280;24211;49.980;19.776;2023-09-19T12:54:15;98966.94;;;19.16;100.00
38939;BME280;24211;49.980;19.776;2023-09-19T12:56:46;98976.66;;;19.17;100.00
38939;BME280;24211;49.980;19.776;2023-09-19T12:59:16;98974.47;;;19.19;100.00
38939;BME280;24211;49.980;19.776;2023-09-19T13:01:43;98977.72;;;19.21;100.00
38939;BME280;24211;49.980;19.776;2023-09-19T13:04:19;98976.59;;;19.22;100.00
38939;BME280;24211;49.980;19.776;2023-09-19T13:06:52;98983.41;;;19.20;100.00
38939;BME280;24211;49.980;19.776;2023-09-19T13:09:22;98984.22;;;19.20;100.00
38939;BME280;24211;49.980;19.776;2023-09-19T13:11:55;98985.25;;;19.24;100.00
38939;BME280;24211;49.980;19.776;2023-09-19T13:14:27;98978.75;;;19.25;100.00
38939;BME280;24211;49.980;19.776;2023-09-19T13:17:04;98983.59;;;19.28;100.00
38939;BME280;24211;49.980;19.776;2023-09-19T13:19:45;98977.38;;;19.28;100.00
38939;BME280;24211;49.980;19.776;2023-09-19T13:22:43;98983.81;;;19.32;100.00
38939;BME280;24211;49.980;19.776;2023-09-19T13:25:18;98975.66;;;19.37;100.00
38939;BME280;24211;49.980;19.776;2023-09-19T13:27:55;98982.34;;;19.44;100.00
38939;BME280;24211;49.980;19.776;2023-09-19T13:30:25;98989.00;;;19.52;100.00
38939;BME280;24211;49.980;19.776;2023-09-19T13:33:09;98985.94;;;19.58;100.00
38939;BME280;24211;49.980;19.776;2023-09-19T13:35:39;98987.50;;;19.65;100.00
38939;BME280;24211;49.980;19.776;2023-09-19T13:38:09;98986.84;;;19.73;100.00
38939;BME280;24211;49.980;19.776;2023-09-19T13:40:38;98991.03;;;19.84;100.00
38939;BME280;24211;49.980;19.776;2023-09-19T13:43:09;98992.59;;;19.90;100.00
38939;BME280;24211;49.980;19.776;2023-09-19T13:45:38;98988.09;;;19.99;100.00
38939;BME280;24211;49.980;19.776;2023-09-19T13:48:05;98989.34;;;20.06;100.00